Terminal Aerodrome Forecast
Issued by NWS

Home | Current Version | Previous Version | Graphics & Text | Print | Product List | Glossary On
Versions: 1 2 3 4 5 6 7 8 9 10 11 12 13 14 15
000
FTUS43 KBIS 260525
TAFJMS
TAF
KJMS 260525Z 2606/2706 26006KT P6SM FEW070 FEW250
     FM261300 29009KT P6SM SCT050
     FM261600 29015KT P6SM BKN050
     FM270200 29007KT P6SM SCT060 SCT200=

USA.gov is the U.S. government's official web portal to all federal, state and local government web resources and services.